sensor_id;sensor_type;location;lat;lon;timestamp;P1;durP1;ratioP1;P2;durP2;ratioP2
12867;SDS011;33517;49.866;8.320;2023-04-06T00:02:22;1.55;;;1.23;;
12867;SDS011;33517;49.866;8.320;2023-04-06T00:05:14;0.95;;;0.80;;
12867;SDS011;33517;49.866;8.320;2023-04-06T00:08:06;3.20;;;0.90;;
12867;SDS011;33517;49.866;8.320;2023-04-06T00:10:58;2.15;;;1.45;;
12867;SDS011;33517;49.866;8.320;2023-04-06T00:13:52;0.70;;;0.70;;
12867;SDS011;33517;49.866;8.320;2023-04-06T00:16:44;1.20;;;1.05;;
12867;SDS011;33517;49.866;8.320;2023-04-06T00:19:36;2.13;;;0.95;;
12867;SDS011;33517;49.866;8.320;2023-04-06T00:22:28;1.23;;;1.13;;
12867;SDS011;33517;49.866;8.320;2023-04-06T00:25:20;1.35;;;1.25;;
12867;SDS011;33517;49.866;8.320;2023-04-06T00:28:12;0.75;;;0.75;;
12867;SDS011;33517;49.866;8.320;2023-04-06T00:31:05;0.90;;;0.90;;
12867;SDS011;33517;49.866;8.320;2023-04-06T00:33:58;1.60;;;1.45;;
12867;SDS011;33517;49.866;8.320;2023-04-06T00:36:50;2.13;;;1.35;;
12867;SDS011;33517;49.866;8.320;2023-04-06T00:39:42;1.92;;;1.52;;
12867;SDS011;33517;49.866;8.320;2023-04-06T00:42:34;0.57;;;0.43;;
12867;SDS011;33517;49.866;8.320;2023-04-06T00:45:27;1.17;;;1.10;;
12867;SDS011;33517;49.866;8.320;2023-04-06T00:48:21;2.60;;;0.60;;
12867;SDS011;33517;49.866;8.320;2023-04-06T00:51:13;2.10;;;0.68;;
12867;SDS011;33517;49.866;8.320;2023-04-06T00:54:05;0.50;;;0.50;;
12867;SDS011;33517;49.866;8.320;2023-04-06T00:56:57;0.30;;;0.30;;
12867;SDS011;33517;49.866;8.320;2023-04-06T00:59:49;0.57;;;0.57;;
12867;SDS011;33517;49.866;8.320;2023-04-06T01:02:41;0.85;;;0.85;;
12867;SDS011;33517;49.866;8.320;2023-04-06T01:05:36;0.70;;;0.68;;
12867;SDS011;33517;49.866;8.320;2023-04-06T01:08:30;0.63;;;0.63;;
12867;SDS011;33517;49.866;8.320;2023-04-06T01:11:23;0.85;;;0.85;;
12867;SDS011;33517;49.866;8.320;2023-04-06T01:14:15;0.80;;;0.80;;
12867;SDS011;33517;49.866;8.320;2023-04-06T01:17:07;0.22;;;0.22;;
12867;SDS011;33517;49.866;8.320;2023-04-06T01:19:59;1.10;;;1.10;;
12867;SDS011;33517;49.866;8.320;2023-04-06T01:22:52;0.63;;;0.63;;
12867;SDS011;33517;49.866;8.320;2023-04-06T01:25:45;0.45;;;0.45;;
12867;SDS011;33517;49.866;8.320;2023-04-06T01:28:37;2.40;;;1.10;;
12867;SDS011;33517;49.866;8.320;2023-04-06T01:31:30;0.80;;;0.80;;
12867;SDS011;33517;49.866;8.320;2023-04-06T01:34:22;0.40;;;0.40;;
12867;SDS011;33517;49.866;8.320;2023-04-06T01:37:14;1.05;;;0.95;;
12867;SDS011;33517;49.866;8.320;2023-04-06T01:40:09;1.10;;;1.08;;
12867;SDS011;33517;49.866;8.320;2023-04-06T01:43:01;0.50;;;0.50;;
12867;SDS011;33517;49.866;8.320;2023-04-06T01:45:53;0.30;;;0.30;;
12867;SDS011;33517;49.866;8.320;2023-04-06T01:48:45;0.38;;;0.38;;
12867;SDS011;33517;49.866;8.320;2023-04-06T01:51:38;0.40;;;0.40;;
12867;SDS011;33517;49.866;8.320;2023-04-06T01:54:30;0.70;;;0.70;;
12867;SDS011;33517;49.866;8.320;2023-04-06T01:57:23;0.30;;;0.30;;
12867;SDS011;33517;49.866;8.320;2023-04-06T02:00:16;0.75;;;0.73;;
12867;SDS011;33517;49.866;8.320;2023-04-06T02:03:08;0.20;;;0.20;;
12867;SDS011;33517;49.866;8.320;2023-04-06T02:06:00;0.40;;;0.40;;
12867;SDS011;33517;49.866;8.320;2023-04-06T02:08:52;0.35;;;0.35;;
12867;SDS011;33517;49.866;8.320;2023-04-06T02:11:44;0.45;;;0.45;;
12867;SDS011;33517;49.866;8.320;2023-04-06T02:14:37;0.30;;;0.30;;
12867;SDS011;33517;49.866;8.320;2023-04-06T02:17:29;1.67;;;1.35;;
12867;SDS011;33517;49.866;8.320;2023-04-06T02:20:21;0.40;;;0.40;;
12867;SDS011;33517;49.866;8.320;2023-04-06T02:23:13;0.63;;;0.63;;
12867;SDS011;33517;49.866;8.320;2023-04-06T02:26:05;0.32;;;0.32;;
12867;SDS011;33517;49.866;8.320;2023-04-06T02:28:57;1.83;;;0.90;;
12867;SDS011;33517;49.866;8.320;2023-04-06T02:31:51;1.40;;;1.30;;
12867;SDS011;33517;49.866;8.320;2023-04-06T02:34:43;0.73;;;0.73;;
12867;SDS011;33517;49.866;8.320;2023-04-06T02:37:35;0.40;;;0.40;;
12867;SDS011;33517;49.866;8.320;2023-04-06T02:40:27;0.50;;;0.50;;
12867;SDS011;33517;49.866;8.320;2023-04-06T02:43:19;0.32;;;0.32;;
12867;SDS011;33517;49.866;8.320;2023-04-06T02:46:11;0.68;;;0.68;;
12867;SDS011;33517;49.866;8.320;2023-04-06T02:49:05;0.50;;;0.50;;
12867;SDS011;33517;49.866;8.320;2023-04-06T02:51:57;0.35;;;0.35;;
12867;SDS011;33517;49.866;8.320;2023-04-06T02:54:49;4.30;;;1.13;;
12867;SDS011;33517;49.866;8.320;2023-04-06T02:57:41;1.30;;;0.68;;
12867;SDS011;33517;49.866;8.320;2023-04-06T03:00:33;2.53;;;1.30;;
12867;SDS011;33517;49.866;8.320;2023-04-06T03:03:26;0.60;;;0.60;;
12867;SDS011;33517;49.866;8.320;2023-04-06T03:06:19;1.08;;;0.95;;
12867;SDS011;33517;49.866;8.320;2023-04-06T03:09:11;0.30;;;0.30;;
12867;SDS011;33517;49.866;8.320;2023-04-06T03:12:04;0.85;;;0.85;;
12867;SDS011;33517;49.866;8.320;2023-04-06T03:14:57;0.65;;;0.65;;
12867;SDS011;33517;49.866;8.320;2023-04-06T03:17:48;0.30;;;0.30;;
12867;SDS011;33517;49.866;8.320;2023-04-06T03:20:40;1.00;;;0.68;;
12867;SDS011;33517;49.866;8.320;2023-04-06T03:23:34;0.55;;;0.55;;
12867;SDS011;33517;49.866;8.320;2023-04-06T03:26:26;0.40;;;0.40;;
12867;SDS011;33517;49.866;8.320;2023-04-06T03:29:18;1.02;;;0.90;;
12867;SDS011;33517;49.866;8.320;2023-04-06T03:32:10;0.63;;;0.63;;
12867;SDS011;33517;49.866;8.320;2023-04-06T03:35:02;0.50;;;0.50;;
12867;SDS011;33517;49.866;8.320;2023-04-06T03:37:54;0.47;;;0.47;;
12867;SDS011;33517;49.866;8.320;2023-04-06T03:40:48;0.30;;;0.30;;
12867;SDS011;33517;49.866;8.320;2023-04-06T03:43:40;1.45;;;0.60;;
12867;SDS011;33517;49.866;8.320;2023-04-06T03:46:32;1.17;;;1.08;;
12867;SDS011;33517;49.866;8.320;2023-04-06T03:49:24;0.30;;;0.30;;
12867;SDS011;33517;49.866;8.320;2023-04-06T03:52:16;0.20;;;0.20;;
12867;SDS011;33517;49.866;8.320;2023-04-06T03:55:08;0.38;;;0.38;;
12867;SDS011;33517;49.866;8.320;2023-04-06T03:58:02;0.73;;;0.65;;
12867;SDS011;33517;49.866;8.320;2023-04-06T04:00:54;0.47;;;0.45;;
12867;SDS011;33517;49.866;8.320;2023-04-06T04:03:46;0.28;;;0.28;;
12867;SDS011;33517;49.866;8.320;2023-04-06T04:06:38;0.20;;;0.20;;
12867;SDS011;33517;49.866;8.320;2023-04-06T04:09:30;0.88;;;0.55;;
12867;SDS011;33517;49.866;8.320;2023-04-06T04:12:22;0.43;;;0.43;;
12867;SDS011;33517;49.866;8.320;2023-04-06T04:15:15;0.70;;;0.70;;
12867;SDS011;33517;49.866;8.320;2023-04-06T04:18:07;0.20;;;0.20;;
12867;SDS011;33517;49.866;8.320;2023-04-06T04:20:59;0.43;;;0.43;;
12867;SDS011;33517;49.866;8.320;2023-04-06T04:23:51;0.82;;;0.82;;
12867;SDS011;33517;49.866;8.320;2023-04-06T04:26:44;1.02;;;0.90;;
12867;SDS011;33517;49.866;8.320;2023-04-06T04:29:36;1.20;;;0.90;;
12867;SDS011;33517;49.866;8.320;2023-04-06T04:32:29;1.27;;;1.17;;
12867;SDS011;33517;49.866;8.320;2023-04-06T04:35:21;1.02;;;0.70;;
12867;SDS011;33517;49.866;8.320;2023-04-06T04:38:13;0.90;;;0.73;;
12867;SDS011;33517;49.866;8.320;2023-04-06T04:41:05;0.57;;;0.57;;
12867;SDS011;33517;49.866;8.320;2023-04-06T04:43:57;0.55;;;0.55;;
12867;SDS011;33517;49.866;8.320;2023-04-06T04:46:49;0.30;;;0.30;;
12867;SDS011;33517;49.866;8.320;2023-04-06T04:49:42;3.15;;;0.75;;
12867;SDS011;33517;49.866;8.320;2023-04-06T04:52:35;1.15;;;0.95;;
12867;SDS011;33517;49.866;8.320;2023-04-06T04:55:27;0.63;;;0.55;;
12867;SDS011;33517;49.866;8.320;2023-04-06T04:58:19;1.00;;;1.00;;
12867;SDS011;33517;49.866;8.320;2023-04-06T05:01:11;0.57;;;0.57;;
12867;SDS011;33517;49.866;8.320;2023-04-06T05:04:03;1.42;;;1.33;;
12867;SDS011;33517;49.866;8.320;2023-04-06T05:07:04;0.85;;;0.65;;
12867;SDS011;33517;49.866;8.320;2023-04-06T05:09:56;3.17;;;1.73;;
12867;SDS011;33517;49.866;8.320;2023-04-06T05:12:48;1.30;;;0.95;;
12867;SDS011;33517;49.866;8.320;2023-04-06T05:15:40;1.08;;;0.70;;
12867;SDS011;33517;49.866;8.320;2023-04-06T05:18:32;1.23;;;1.13;;
12867;SDS011;33517;49.866;8.320;2023-04-06T05:21:25;1.15;;;1.05;;
12867;SDS011;33517;49.866;8.320;2023-04-06T05:24:19;0.20;;;0.20;;
12867;SDS011;33517;49.866;8.320;2023-04-06T05:27:12;0.60;;;0.60;;
12867;SDS011;33517;49.866;8.320;2023-04-06T05:30:05;1.85;;;0.65;;
12867;SDS011;33517;49.866;8.320;2023-04-06T05:32:58;0.80;;;0.80;;
12867;SDS011;33517;49.866;8.320;2023-04-06T05:35:50;1.95;;;0.95;;
12867;SDS011;33517;49.866;8.320;2023-04-06T05:38:42;0.47;;;0.47;;
12867;SDS011;33517;49.866;8.320;2023-04-06T05:41:35;1.05;;;0.95;;
12867;SDS011;33517;49.866;8.320;2023-04-06T05:44:27;0.82;;;0.82;;
12867;SDS011;33517;49.866;8.320;2023-04-06T05:47:19;0.82;;;0.82;;
12867;SDS011;33517;49.866;8.320;2023-04-06T05:50:12;0.80;;;0.80;;
12867;SDS011;33517;49.866;8.320;2023-04-06T05:53:07;0.77;;;0.68;;
12867;SDS011;33517;49.866;8.320;2023-04-06T05:56:00;1.15;;;1.08;;
12867;SDS011;33517;49.866;8.320;2023-04-06T05:58:53;0.60;;;0.60;;
12867;SDS011;33517;49.866;8.320;2023-04-06T06:01:45;1.35;;;1.25;;
12867;SDS011;33517;49.866;8.320;2023-04-06T06:04:37;2.47;;;1.75;;
12867;SDS011;33517;49.866;8.320;2023-04-06T06:07:29;1.88;;;1.77;;
12867;SDS011;33517;49.866;8.320;2023-04-06T06:10:21;2.90;;;1.70;;
12867;SDS011;33517;49.866;8.320;2023-04-06T06:13:13;10.93;;;1.60;;
12867;SDS011;33517;49.866;8.320;2023-04-06T06:16:07;5.68;;;2.95;;
12867;SDS011;33517;49.866;8.320;2023-04-06T06:18:59;7.22;;;2.85;;
12867;SDS011;33517;49.866;8.320;2023-04-06T06:21:51;2.50;;;2.00;;
12867;SDS011;33517;49.866;8.320;2023-04-06T06:24:43;7.82;;;6.40;;
12867;SDS011;33517;49.866;8.320;2023-04-06T06:27:35;3.88;;;3.03;;
12867;SDS011;33517;49.866;8.320;2023-04-06T06:30:27;4.10;;;3.75;;
12867;SDS011;33517;49.866;8.320;2023-04-06T06:33:20;5.45;;;2.97;;
12867;SDS011;33517;49.866;8.320;2023-04-06T06:36:15;4.50;;;2.92;;
12867;SDS011;33517;49.866;8.320;2023-04-06T06:39:07;3.95;;;2.42;;
12867;SDS011;33517;49.866;8.320;2023-04-06T06:41:59;5.85;;;3.47;;
12867;SDS011;33517;49.866;8.320;2023-04-06T06:44:52;3.53;;;2.63;;
12867;SDS011;33517;49.866;8.320;2023-04-06T06:47:44;4.35;;;2.97;;
12867;SDS011;33517;49.866;8.320;2023-04-06T06:50:37;4.03;;;2.65;;
12867;SDS011;33517;49.866;8.320;2023-04-06T06:53:29;2.78;;;1.65;;
12867;SDS011;33517;49.866;8.320;2023-04-06T06:56:21;3.60;;;3.05;;
12867;SDS011;33517;49.866;8.320;2023-04-06T06:59:13;2.78;;;2.20;;
12867;SDS011;33517;49.866;8.320;2023-04-06T07:02:06;3.08;;;2.40;;
12867;SDS011;33517;49.866;8.320;2023-04-06T07:04:58;2.08;;;1.88;;
12867;SDS011;33517;49.866;8.320;2023-04-06T07:07:52;2.47;;;1.75;;
12867;SDS011;33517;49.866;8.320;2023-04-06T07:10:44;2.58;;;2.10;;
12867;SDS011;33517;49.866;8.320;2023-04-06T07:13:35;2.83;;;2.25;;
12867;SDS011;33517;49.866;8.320;2023-04-06T07:16:27;4.15;;;3.08;;
12867;SDS011;33517;49.866;8.320;2023-04-06T07:19:19;3.15;;;2.60;;
12867;SDS011;33517;49.866;8.320;2023-04-06T07:22:11;3.13;;;2.30;;
12867;SDS011;33517;49.866;8.320;2023-04-06T07:25:05;3.30;;;2.50;;
12867;SDS011;33517;49.866;8.320;2023-04-06T07:27:58;2.10;;;1.88;;
12867;SDS011;33517;49.866;8.320;2023-04-06T07:30:50;2.58;;;2.25;;
12867;SDS011;33517;49.866;8.320;2023-04-06T07:33:42;4.95;;;2.95;;
12867;SDS011;33517;49.866;8.320;2023-04-06T07:36:34;4.50;;;2.92;;
12867;SDS011;33517;49.866;8.320;2023-04-06T07:39:26;4.35;;;2.45;;
12867;SDS011;33517;49.866;8.320;2023-04-06T07:42:19;3.45;;;2.63;;
12867;SDS011;33517;49.866;8.320;2023-04-06T07:45:11;4.80;;;2.75;;
12867;SDS011;33517;49.866;8.320;2023-04-06T07:48:04;6.63;;;3.22;;
12867;SDS011;33517;49.866;8.320;2023-04-06T07:51:00;5.20;;;2.85;;
12867;SDS011;33517;49.866;8.320;2023-04-06T07:53:53;3.17;;;2.88;;
12867;SDS011;33517;49.866;8.320;2023-04-06T07:56:45;3.35;;;2.63;;
12867;SDS011;33517;49.866;8.320;2023-04-06T07:59:38;4.28;;;2.83;;
12867;SDS011;33517;49.866;8.320;2023-04-06T08:02:31;4.30;;;3.05;;
12867;SDS011;33517;49.866;8.320;2023-04-06T08:05:23;5.35;;;3.28;;
12867;SDS011;33517;49.866;8.320;2023-04-06T08:08:15;3.42;;;2.58;;
12867;SDS011;33517;49.866;8.320;2023-04-06T08:11:07;4.13;;;3.13;;
12867;SDS011;33517;49.866;8.320;2023-04-06T08:13:59;4.78;;;3.00;;
12867;SDS011;33517;49.866;8.320;2023-04-06T08:16:53;5.15;;;3.28;;
12867;SDS011;33517;49.866;8.320;2023-04-06T08:19:45;3.47;;;2.60;;
12867;SDS011;33517;49.866;8.320;2023-04-06T08:22:37;3.80;;;2.50;;
12867;SDS011;33517;49.866;8.320;2023-04-06T08:25:29;3.25;;;2.63;;
12867;SDS011;33517;49.866;8.320;2023-04-06T08:28:21;3.33;;;2.60;;
12867;SDS011;33517;49.866;8.320;2023-04-06T08:31:13;3.53;;;2.55;;
12867;SDS011;33517;49.866;8.320;2023-04-06T08:34:06;3.15;;;2.55;;
12867;SDS011;33517;49.866;8.320;2023-04-06T08:36:58;4.03;;;3.03;;
12867;SDS011;33517;49.866;8.320;2023-04-06T08:39:51;8.40;;;2.95;;
12867;SDS011;33517;49.866;8.320;2023-04-06T08:42:44;11.48;;;3.17;;
12867;SDS011;33517;49.866;8.320;2023-04-06T08:45:41;5.20;;;2.88;;
12867;SDS011;33517;49.866;8.320;2023-04-06T08:48:33;6.65;;;3.85;;
12867;SDS011;33517;49.866;8.320;2023-04-06T08:51:29;7.85;;;4.35;;
12867;SDS011;33517;49.866;8.320;2023-04-06T08:54:21;4.43;;;3.00;;
12867;SDS011;33517;49.866;8.320;2023-04-06T08:57:14;4.25;;;3.17;;
12867;SDS011;33517;49.866;8.320;2023-04-06T09:00:09;4.70;;;3.08;;
12867;SDS011;33517;49.866;8.320;2023-04-06T09:03:02;5.70;;;3.17;;
12867;SDS011;33517;49.866;8.320;2023-04-06T09:05:56;7.43;;;4.45;;
12867;SDS011;33517;49.866;8.320;2023-04-06T09:08:49;5.53;;;4.07;;
12867;SDS011;33517;49.866;8.320;2023-04-06T09:11:42;6.05;;;3.75;;
12867;SDS011;33517;49.866;8.320;2023-04-06T09:14:35;4.95;;;3.45;;
12867;SDS011;33517;49.866;8.320;2023-04-06T09:17:28;4.03;;;2.90;;
12867;SDS011;33517;49.866;8.320;2023-04-06T09:20:23;4.82;;;3.70;;
12867;SDS011;33517;49.866;8.320;2023-04-06T09:23:19;4.88;;;3.63;;
12867;SDS011;33517;49.866;8.320;2023-04-06T09:26:13;6.25;;;3.95;;
12867;SDS011;33517;49.866;8.320;2023-04-06T09:29:06;6.38;;;3.55;;
12867;SDS011;33517;49.866;8.320;2023-04-06T09:32:04;6.00;;;3.83;;
12867;SDS011;33517;49.866;8.320;2023-04-06T09:35:05;4.63;;;3.00;;
12867;SDS011;33517;49.866;8.320;2023-04-06T09:37:57;5.82;;;3.90;;
12867;SDS011;33517;49.866;8.320;2023-04-06T09:40:50;5.82;;;3.75;;
12867;SDS011;33517;49.866;8.320;2023-04-06T09:43:44;7.20;;;4.28;;
12867;SDS011;33517;49.866;8.320;2023-04-06T09:46:36;3.72;;;3.03;;
12867;SDS011;33517;49.866;8.320;2023-04-06T09:49:30;4.80;;;3.15;;
12867;SDS011;33517;49.866;8.320;2023-04-06T09:52:25;5.70;;;3.55;;
12867;SDS011;33517;49.866;8.320;2023-04-06T09:55:20;4.80;;;3.55;;
12867;SDS011;33517;49.866;8.320;2023-04-06T09:58:16;5.57;;;3.47;;
12867;SDS011;33517;49.866;8.320;2023-04-06T10:01:12;8.95;;;4.13;;
12867;SDS011;33517;49.866;8.320;2023-04-06T10:04:10;5.72;;;4.13;;
12867;SDS011;33517;49.866;8.320;2023-04-06T10:07:21;5.60;;;3.85;;
12867;SDS011;33517;49.866;8.320;2023-04-06T10:10:13;3.83;;;3.08;;
12867;SDS011;33517;49.866;8.320;2023-04-06T10:13:07;5.30;;;3.67;;
12867;SDS011;33517;49.866;8.320;2023-04-06T10:16:01;4.47;;;2.80;;
12867;SDS011;33517;49.866;8.320;2023-04-06T10:18:56;7.47;;;3.88;;
12867;SDS011;33517;49.866;8.320;2023-04-06T10:21:54;6.03;;;3.38;;
12867;SDS011;33517;49.866;8.320;2023-04-06T10:24:48;5.93;;;3.55;;
12867;SDS011;33517;49.866;8.320;2023-04-06T10:27:40;5.72;;;2.75;;
12867;SDS011;33517;49.866;8.320;2023-04-06T10:30:33;4.38;;;3.13;;
12867;SDS011;33517;49.866;8.320;2023-04-06T10:33:25;6.65;;;4.20;;
12867;SDS011;33517;49.866;8.320;2023-04-06T10:36:22;4.93;;;3.08;;
12867;SDS011;33517;49.866;8.320;2023-04-06T10:39:23;5.07;;;3.70;;
12867;SDS011;33517;49.866;8.320;2023-04-06T10:42:17;4.68;;;3.08;;
12867;SDS011;33517;49.866;8.320;2023-04-06T10:45:18;6.00;;;3.47;;
12867;SDS011;33517;49.866;8.320;2023-04-06T10:48:13;5.60;;;3.13;;
12867;SDS011;33517;49.866;8.320;2023-04-06T10:51:09;5.45;;;3.22;;
12867;SDS011;33517;49.866;8.320;2023-04-06T10:54:03;2.90;;;2.13;;
12867;SDS011;33517;49.866;8.320;2023-04-06T10:56:57;6.53;;;2.80;;
12867;SDS011;33517;49.866;8.320;2023-04-06T10:59:52;4.40;;;3.00;;
12867;SDS011;33517;49.866;8.320;2023-04-06T11:02:45;6.72;;;3.38;;
12867;SDS011;33517;49.866;8.320;2023-04-06T11:05:38;6.70;;;3.38;;
12867;SDS011;33517;49.866;8.320;2023-04-06T11:08:31;4.13;;;2.85;;
12867;SDS011;33517;49.866;8.320;2023-04-06T11:11:25;4.88;;;3.35;;
12867;SDS011;33517;49.866;8.320;2023-04-06T11:14:18;4.70;;;2.78;;
12867;SDS011;33517;49.866;8.320;2023-04-06T11:17:10;4.78;;;2.30;;
12867;SDS011;33517;49.866;8.320;2023-04-06T11:20:03;3.90;;;2.88;;
12867;SDS011;33517;49.866;8.320;2023-04-06T11:22:56;3.78;;;2.75;;
12867;SDS011;33517;49.866;8.320;2023-04-06T11:25:50;4.00;;;2.78;;
12867;SDS011;33517;49.866;8.320;2023-04-06T11:28:44;3.03;;;2.72;;
12867;SDS011;33517;49.866;8.320;2023-04-06T11:31:39;4.65;;;3.90;;
12867;SDS011;33517;49.866;8.320;2023-04-06T11:34:33;5.00;;;2.95;;
12867;SDS011;33517;49.866;8.320;2023-04-06T11:37:27;8.25;;;4.78;;
12867;SDS011;33517;49.866;8.320;2023-04-06T11:40:20;2.80;;;2.53;;
12867;SDS011;33517;49.866;8.320;2023-04-06T11:43:13;3.78;;;2.35;;
12867;SDS011;33517;49.866;8.320;2023-04-06T11:46:07;5.10;;;3.65;;
12867;SDS011;33517;49.866;8.320;2023-04-06T11:49:01;3.05;;;2.63;;
12867;SDS011;33517;49.866;8.320;2023-04-06T11:51:53;22.58;;;3.40;;
12867;SDS011;33517;49.866;8.320;2023-04-06T11:54:46;4.75;;;3.05;;
12867;SDS011;33517;49.866;8.320;2023-04-06T11:57:39;5.28;;;3.15;;
12867;SDS011;33517;49.866;8.320;2023-04-06T12:00:31;4.60;;;2.85;;
12867;SDS011;33517;49.866;8.320;2023-04-06T12:03:26;4.60;;;3.55;;
12867;SDS011;33517;49.866;8.320;2023-04-06T12:06:18;3.50;;;1.98;;
12867;SDS011;33517;49.866;8.320;2023-04-06T12:09:10;5.13;;;3.45;;
12867;SDS011;33517;49.866;8.320;2023-04-06T12:12:02;2.55;;;1.60;;
12867;SDS011;33517;49.866;8.320;2023-04-06T12:14:54;3.58;;;1.90;;
12867;SDS011;33517;49.866;8.320;2023-04-06T12:17:47;3.88;;;2.40;;
12867;SDS011;33517;49.866;8.320;2023-04-06T12:20:41;2.25;;;1.88;;
12867;SDS011;33517;49.866;8.320;2023-04-06T12:23:33;3.60;;;2.03;;
12867;SDS011;33517;49.866;8.320;2023-04-06T12:26:25;4.28;;;2.92;;
12867;SDS011;33517;49.866;8.320;2023-04-06T12:29:17;0.63;;;0.63;;
12867;SDS011;33517;49.866;8.320;2023-04-06T12:32:09;1.95;;;1.75;;
12867;SDS011;33517;49.866;8.320;2023-04-06T12:35:02;5.50;;;2.90;;
12867;SDS011;33517;49.866;8.320;2023-04-06T12:37:55;4.05;;;2.67;;
12867;SDS011;33517;49.866;8.320;2023-04-06T12:40:47;7.00;;;2.88;;
12867;SDS011;33517;49.866;8.320;2023-04-06T12:43:40;6.10;;;2.55;;
12867;SDS011;33517;49.866;8.320;2023-04-06T12:46:32;2.45;;;2.10;;
12867;SDS011;33517;49.866;8.320;2023-04-06T12:49:25;5.35;;;3.28;;
12867;SDS011;33517;49.866;8.320;2023-04-06T12:52:17;3.20;;;2.30;;
12867;SDS011;33517;49.866;8.320;2023-04-06T12:55:11;3.53;;;2.40;;
12867;SDS011;33517;49.866;8.320;2023-04-06T12:58:03;4.53;;;2.75;;
12867;SDS011;33517;49.866;8.320;2023-04-06T13:00:55;3.25;;;2.75;;
12867;SDS011;33517;49.866;8.320;2023-04-06T13:03:53;3.55;;;2.30;;
12867;SDS011;33517;49.866;8.320;2023-04-06T13:06:45;2.42;;;1.83;;
12867;SDS011;33517;49.866;8.320;2023-04-06T13:09:37;2.92;;;1.90;;
12867;SDS011;33517;49.866;8.320;2023-04-06T13:12:30;1.58;;;1.40;;
12867;SDS011;33517;49.866;8.320;2023-04-06T13:15:22;8.43;;;2.10;;
12867;SDS011;33517;49.866;8.320;2023-04-06T13:18:14;6.05;;;2.92;;
12867;SDS011;33517;49.866;8.320;2023-04-06T13:21:06;4.55;;;3.08;;
12867;SDS011;33517;49.866;8.320;2023-04-06T13:23:59;1.92;;;1.73;;
12867;SDS011;33517;49.866;8.320;2023-04-06T13:26:51;3.25;;;2.00;;
12867;SDS011;33517;49.866;8.320;2023-04-06T13:29:45;3.88;;;2.58;;
12867;SDS011;33517;49.866;8.320;2023-04-06T13:32:37;1.95;;;1.73;;
12867;SDS011;33517;49.866;8.320;2023-04-06T13:35:29;2.80;;;1.58;;
12867;SDS011;33517;49.866;8.320;2023-04-06T13:38:21;2.25;;;1.42;;
12867;SDS011;33517;49.866;8.320;2023-04-06T13:41:18;1.50;;;1.30;;
12867;SDS011;33517;49.866;8.320;2023-04-06T13:44:11;1.48;;;1.23;;
12867;SDS011;33517;49.866;8.320;2023-04-06T13:47:04;3.22;;;2.55;;
12867;SDS011;33517;49.866;8.320;2023-04-06T13:49:56;4.82;;;1.98;;
12867;SDS011;33517;49.866;8.320;2023-04-06T13:52:48;2.58;;;1.73;;
12867;SDS011;33517;49.866;8.320;2023-04-06T13:55:40;3.13;;;1.73;;
12867;SDS011;33517;49.866;8.320;2023-04-06T13:58:32;2.17;;;1.85;;
12867;SDS011;33517;49.866;8.320;2023-04-06T14:01:26;4.25;;;2.15;;
12867;SDS011;33517;49.866;8.320;2023-04-06T14:04:19;2.50;;;1.67;;
12867;SDS011;33517;49.866;8.320;2023-04-06T14:07:11;3.92;;;1.52;;
12867;SDS011;33517;49.866;8.320;2023-04-06T14:10:03;2.47;;;1.60;;
12867;SDS011;33517;49.866;8.320;2023-04-06T14:13:03;1.30;;;1.08;;
12867;SDS011;33517;49.866;8.320;2023-04-06T14:15:55;2.85;;;1.75;;
12867;SDS011;33517;49.866;8.320;2023-04-06T14:18:47;1.40;;;1.30;;
12867;SDS011;33517;49.866;8.320;2023-04-06T14:21:41;1.77;;;1.67;;
12867;SDS011;33517;49.866;8.320;2023-04-06T14:24:34;1.30;;;1.20;;
12867;SDS011;33517;49.866;8.320;2023-04-06T14:27:27;3.20;;;1.95;;
12867;SDS011;33517;49.866;8.320;2023-04-06T14:30:19;2.28;;;1.95;;
12867;SDS011;33517;49.866;8.320;2023-04-06T14:33:11;1.17;;;1.05;;
12867;SDS011;33517;49.866;8.320;2023-04-06T14:36:03;4.75;;;2.30;;
12867;SDS011;33517;49.866;8.320;2023-04-06T14:38:58;3.75;;;2.35;;
12867;SDS011;33517;49.866;8.320;2023-04-06T14:41:49;0.85;;;0.85;;
12867;SDS011;33517;49.866;8.320;2023-04-06T14:44:41;1.40;;;1.20;;
12867;SDS011;33517;49.866;8.320;2023-04-06T14:47:35;1.40;;;1.05;;
12867;SDS011;33517;49.866;8.320;2023-04-06T14:50:27;3.08;;;1.58;;
12867;SDS011;33517;49.866;8.320;2023-04-06T14:53:19;5.82;;;1.42;;
12867;SDS011;33517;49.866;8.320;2023-04-06T14:56:12;1.88;;;1.48;;
12867;SDS011;33517;49.866;8.320;2023-04-06T14:59:04;1.60;;;1.00;;
12867;SDS011;33517;49.866;8.320;2023-04-06T15:01:56;1.38;;;1.25;;
12867;SDS011;33517;49.866;8.320;2023-04-06T15:04:50;1.88;;;1.60;;
12867;SDS011;33517;49.866;8.320;2023-04-06T15:07:42;1.45;;;1.23;;
12867;SDS011;33517;49.866;8.320;2023-04-06T15:10:33;1.73;;;1.25;;
12867;SDS011;33517;49.866;8.320;2023-04-06T15:13:27;1.35;;;1.10;;
12867;SDS011;33517;49.866;8.320;2023-04-06T15:16:20;0.77;;;0.63;;
12867;SDS011;33517;49.866;8.320;2023-04-06T15:19:11;4.07;;;1.33;;
12867;SDS011;33517;49.866;8.320;2023-04-06T15:22:03;1.35;;;0.82;;
12867;SDS011;33517;49.866;8.320;2023-04-06T15:24:55;1.98;;;1.42;;
12867;SDS011;33517;49.866;8.320;2023-04-06T15:27:47;3.95;;;1.92;;
12867;SDS011;33517;49.866;8.320;2023-04-06T15:30:41;4.40;;;1.75;;
12867;SDS011;33517;49.866;8.320;2023-04-06T15:33:33;4.25;;;1.67;;
12867;SDS011;33517;49.866;8.320;2023-04-06T15:36:25;3.58;;;1.75;;
12867;SDS011;33517;49.866;8.320;2023-04-06T15:39:19;1.95;;;1.35;;
12867;SDS011;33517;49.866;8.320;2023-04-06T15:42:10;2.65;;;0.90;;
12867;SDS011;33517;49.866;8.320;2023-04-06T15:45:02;1.23;;;1.13;;
12867;SDS011;33517;49.866;8.320;2023-04-06T15:47:56;3.50;;;1.15;;
12867;SDS011;33517;49.866;8.320;2023-04-06T15:50:48;1.55;;;1.40;;
12867;SDS011;33517;49.866;8.320;2023-04-06T15:53:40;0.98;;;0.93;;
12867;SDS011;33517;49.866;8.320;2023-04-06T15:56:32;2.70;;;1.73;;
12867;SDS011;33517;49.866;8.320;2023-04-06T15:59:24;1.20;;;1.10;;
12867;SDS011;33517;49.866;8.320;2023-04-06T16:02:16;0.98;;;0.93;;
12867;SDS011;33517;49.866;8.320;2023-04-06T16:05:10;0.70;;;0.70;;
12867;SDS011;33517;49.866;8.320;2023-04-06T16:08:02;1.40;;;1.30;;
12867;SDS011;33517;49.866;8.320;2023-04-06T16:10:54;0.85;;;0.85;;
12867;SDS011;33517;49.866;8.320;2023-04-06T16:13:46;2.05;;;1.33;;
12867;SDS011;33517;49.866;8.320;2023-04-06T16:16:38;0.88;;;0.75;;
12867;SDS011;33517;49.866;8.320;2023-04-06T16:19:32;1.08;;;0.70;;
12867;SDS011;33517;49.866;8.320;2023-04-06T16:22:26;0.70;;;0.70;;
12867;SDS011;33517;49.866;8.320;2023-04-06T16:25:18;2.15;;;1.60;;
12867;SDS011;33517;49.866;8.320;2023-04-06T16:28:10;0.70;;;0.70;;
12867;SDS011;33517;49.866;8.320;2023-04-06T16:31:02;0.40;;;0.40;;
12867;SDS011;33517;49.866;8.320;2023-04-06T16:33:54;0.47;;;0.47;;
12867;SDS011;33517;49.866;8.320;2023-04-06T16:36:47;1.13;;;1.05;;
12867;SDS011;33517;49.866;8.320;2023-04-06T16:39:40;2.30;;;1.02;;
12867;SDS011;33517;49.866;8.320;2023-04-06T16:42:32;1.00;;;0.77;;
12867;SDS011;33517;49.866;8.320;2023-04-06T16:45:24;1.40;;;1.17;;
12867;SDS011;33517;49.866;8.320;2023-04-06T16:48:16;1.35;;;1.15;;
12867;SDS011;33517;49.866;8.320;2023-04-06T16:51:08;1.42;;;1.10;;
12867;SDS011;33517;49.866;8.320;2023-04-06T16:54:00;0.82;;;0.82;;
12867;SDS011;33517;49.866;8.320;2023-04-06T16:56:54;1.85;;;1.30;;
12867;SDS011;33517;49.866;8.320;2023-04-06T16:59:47;1.23;;;1.13;;
12867;SDS011;33517;49.866;8.320;2023-04-06T17:02:38;1.33;;;0.68;;
12867;SDS011;33517;49.866;8.320;2023-04-06T17:05:30;3.70;;;2.08;;
12867;SDS011;33517;49.866;8.320;2023-04-06T17:08:24;3.88;;;1.90;;
12867;SDS011;33517;49.866;8.320;2023-04-06T17:11:16;2.90;;;1.73;;
12867;SDS011;33517;49.866;8.320;2023-04-06T17:14:09;1.17;;;1.08;;
12867;SDS011;33517;49.866;8.320;2023-04-06T17:17:01;1.67;;;1.13;;
12867;SDS011;33517;49.866;8.320;2023-04-06T17:19:53;0.50;;;0.40;;
12867;SDS011;33517;49.866;8.320;2023-04-06T17:22:45;0.80;;;0.80;;